Time;durP1;ratioP1;P1;durP2;ratioP2;P2;SDS_P1;SDS_P2;PMS_P1;PMS_P2;Temp;Humidity;BMP_temperature;BMP_pressure;BME280_temperature;BME280_humidity;BME280_pressure;Samples;Min_cycle;Max_cycle;Signal;HPM_P1;HPM_P2
2023/12/19 00:00:42;;;;;;;5.13;4.83;;;;;;;;;;5114303;28;20407;-72
2023/12/19 00:03:08;;;;;;;5.17;4.73;;;;;;;;;;5112580;28;20880;-72
2023/12/19 00:05:34;;;;;;;4.93;4.53;;;;;;;;;;5113654;28;20467;-72
2023/12/19 00:08:00;;;;;;;6.17;5.77;;;;;;;;;;5113758;28;20998;-72
2023/12/19 00:10:26;;;;;;;6.60;5.63;;;;;;;;;;5114064;28;20414;-72
2023/12/19 00:12:52;;;;;;;10.27;5.50;;;;;;;;;;5114098;28;20494;-72
2023/12/19 00:15:22;;;;;;;5.20;4.70;;;;;;;;;;5113786;28;20443;-72
2023/12/19 00:17:48;;;;;;;5.40;4.90;;;;;;;;;;5114078;28;20424;-72
2023/12/19 00:20:14;;;;;;;5.03;4.63;;;;;;;;;;5113964;28;20415;-72
2023/12/19 00:22:40;;;;;;;5.20;4.50;;;;;;;;;;5113813;28;20519;-72
2023/12/19 00:25:06;;;;;;;5.50;4.10;;;;;;;;;;5113859;28;20415;-72
2023/12/19 00:27:32;;;;;;;6.80;4.63;;;;;;;;;;5113798;28;20424;-72
2023/12/19 00:29:58;;;;;;;6.47;5.87;;;;;;;;;;5113480;28;20481;-72
2023/12/19 00:32:24;;;;;;;6.07;5.57;;;;;;;;;;5114053;28;20423;-72
2023/12/19 00:34:50;;;;;;;5.53;5.03;;;;;;;;;;5113541;28;20400;-71
2023/12/19 00:37:16;;;;;;;5.03;4.83;;;;;;;;;;5114010;28;20995;-69
2023/12/19 00:39:42;;;;;;;5.80;5.40;;;;;;;;;;5113376;28;20748;-69
2023/12/19 00:42:08;;;;;;;5.83;5.33;;;;;;;;;;5113366;28;20553;-69
2023/12/19 00:44:37;;;;;;;6.17;5.50;;;;;;;;;;5113500;28;20412;-70
2023/12/19 00:47:03;;;;;;;5.53;5.13;;;;;;;;;;5113655;28;20439;-69
2023/12/19 00:49:30;;;;;;;5.60;5.10;;;;;;;;;;5113392;28;20467;-69
2023/12/19 00:51:56;;;;;;;4.93;4.60;;;;;;;;;;5113452;28;20404;-69
2023/12/19 00:54:22;;;;;;;5.07;4.77;;;;;;;;;;5114032;28;20937;-69
2023/12/19 00:56:48;;;;;;;5.17;4.87;;;;;;;;;;5117563;28;20771;-69
2023/12/19 00:59:14;;;;;;;10.73;4.53;;;;;;;;;;5117548;28;20422;-69
2023/12/19 01:01:40;;;;;;;5.30;4.80;;;;;;;;;;5117702;28;20503;-69
2023/12/19 01:04:08;;;;;;;7.60;4.80;;;;;;;;;;5117104;28;20455;-69
2023/12/19 01:06:35;;;;;;;5.00;4.53;;;;;;;;;;5117671;28;20422;-69
2023/12/19 01:09:02;;;;;;;4.77;4.47;;;;;;;;;;5117093;28;20474;-69
2023/12/19 01:11:29;;;;;;;9.20;4.87;;;;;;;;;;5118296;28;20755;-69
2023/12/19 01:13:56;;;;;;;5.70;5.40;;;;;;;;;;5117382;28;20471;-69
2023/12/19 01:16:22;;;;;;;5.67;5.20;;;;;;;;;;5117488;28;20436;-69
2023/12/19 01:18:48;;;;;;;4.77;4.37;;;;;;;;;;5117346;28;20400;-70
2023/12/19 01:21:14;;;;;;;4.30;4.13;;;;;;;;;;5117302;28;20750;-69
2023/12/19 01:23:40;;;;;;;4.87;4.57;;;;;;;;;;5115598;28;20755;-69
2023/12/19 01:26:06;;;;;;;3.73;3.53;;;;;;;;;;5117259;28;20419;-69
2023/12/19 01:28:32;;;;;;;5.17;4.67;;;;;;;;;;5117948;28;20508;-69
2023/12/19 01:30:58;;;;;;;4.77;4.37;;;;;;;;;;5116785;28;20411;-69
2023/12/19 01:33:24;;;;;;;5.10;4.23;;;;;;;;;;5117225;28;20500;-69
2023/12/19 01:35:50;;;;;;;7.57;3.80;;;;;;;;;;5116706;28;20437;-69
2023/12/19 01:38:16;;;;;;;2.93;2.93;;;;;;;;;;5117020;28;20412;-69
2023/12/19 01:40:42;;;;;;;6.40;3.50;;;;;;;;;;5116948;28;20472;-69
2023/12/19 01:43:18;;;;;;;3.63;3.43;;;;;;;;;;5117069;28;20454;-69
2023/12/19 01:45:44;;;;;;;3.60;3.40;;;;;;;;;;5116840;28;20777;-69
2023/12/19 01:48:11;;;;;;;3.97;3.77;;;;;;;;;;5116416;28;20454;-69
2023/12/19 01:50:37;;;;;;;3.80;3.50;;;;;;;;;;5116557;28;20541;-69
2023/12/19 01:53:03;;;;;;;26.90;11.77;;;;;;;;;;5117091;28;20458;-69
2023/12/19 01:55:29;;;;;;;12.73;6.90;;;;;;;;;;5116398;28;20423;-69
2023/12/19 01:57:56;;;;;;;26.87;13.00;;;;;;;;;;5116562;28;20769;-69
2023/12/19 02:00:22;;;;;;;15.43;9.50;;;;;;;;;;5116369;28;20420;-69
2023/12/19 02:02:50;;;;;;;4.20;4.00;;;;;;;;;;5116436;28;20415;-69
2023/12/19 02:05:16;;;;;;;3.27;3.17;;;;;;;;;;5115960;28;20463;-69
2023/12/19 02:07:45;;;;;;;2.60;2.40;;;;;;;;;;5116007;28;20499;-69
2023/12/19 02:10:12;;;;;;;3.37;3.20;;;;;;;;;;5116358;28;20427;-69
2023/12/19 02:12:38;;;;;;;2.73;2.63;;;;;;;;;;5116383;28;20451;-69
2023/12/19 02:15:05;;;;;;;3.07;2.97;;;;;;;;;;5116015;27;20931;-69
2023/12/19 02:17:31;;;;;;;3.40;3.20;;;;;;;;;;5116208;28;20447;-70
2023/12/19 02:19:57;;;;;;;3.07;2.97;;;;;;;;;;5116041;28;20416;-69
2023/12/19 02:22:23;;;;;;;3.83;3.63;;;;;;;;;;5116131;28;20907;-69
2023/12/19 02:24:49;;;;;;;3.20;3.00;;;;;;;;;;5115849;28;20892;-69
2023/12/19 02:27:15;;;;;;;5.07;4.77;;;;;;;;;;5115827;28;20412;-69
2023/12/19 02:29:41;;;;;;;3.37;3.23;;;;;;;;;;5115797;28;20966;-69
2023/12/19 02:32:07;;;;;;;3.87;3.63;;;;;;;;;;5115901;28;20553;-69
2023/12/19 02:34:33;;;;;;;3.37;3.20;;;;;;;;;;5115623;28;20416;-69
2023/12/19 02:36:59;;;;;;;3.90;3.57;;;;;;;;;;5115516;28;20408;-70
2023/12/19 02:39:25;;;;;;;3.67;3.47;;;;;;;;;;5115478;28;20997;-70
2023/12/19 02:41:51;;;;;;;3.77;3.47;;;;;;;;;;5115524;28;20412;-70
2023/12/19 02:44:17;;;;;;;2.70;2.60;;;;;;;;;;5115355;28;20422;-70
2023/12/19 02:46:43;;;;;;;2.67;2.47;;;;;;;;;;5115438;28;20408;-70
2023/12/19 02:49:09;;;;;;;2.30;2.23;;;;;;;;;;5115310;28;21018;-70
2023/12/19 02:51:35;;;;;;;5.07;2.90;;;;;;;;;;5115388;28;20450;-70
2023/12/19 02:54:01;;;;;;;2.97;2.80;;;;;;;;;;5115334;28;20431;-70
2023/12/19 02:56:32;;;;;;;2.50;2.50;;;;;;;;;;5115504;28;20518;-70
2023/12/19 02:58:58;;;;;;;3.33;3.00;;;;;;;;;;5115509;28;20401;-70
2023/12/19 03:01:23;;;;;;;2.57;2.47;;;;;;;;;;5115437;28;20757;-69
2023/12/19 03:03:49;;;;;;;2.40;2.40;;;;;;;;;;5115059;28;20463;-70
2023/12/19 03:06:16;;;;;;;2.70;2.60;;;;;;;;;;5115275;28;20400;-70
2023/12/19 03:08:45;;;;;;;2.27;2.27;;;;;;;;;;5115290;28;20494;-70
2023/12/19 03:11:11;;;;;;;2.63;2.50;;;;;;;;;;5115180;28;20441;-70
2023/12/19 03:13:37;;;;;;;3.43;2.87;;;;;;;;;;5114759;28;20934;-70
2023/12/19 03:16:04;;;;;;;2.37;2.37;;;;;;;;;;5114772;28;20407;-70
2023/12/19 03:18:29;;;;;;;3.17;2.97;;;;;;;;;;5114510;28;20805;-70
2023/12/19 03:20:55;;;;;;;3.37;3.20;;;;;;;;;;5114749;28;20456;-70
2023/12/19 03:23:21;;;;;;;2.37;2.27;;;;;;;;;;5114548;28;20904;-69
2023/12/19 03:25:48;;;;;;;2.13;2.13;;;;;;;;;;5114868;28;20910;-70
2023/12/19 03:28:14;;;;;;;2.77;2.63;;;;;;;;;;5114715;28;20504;-69
2023/12/19 03:30:40;;;;;;;2.60;2.50;;;;;;;;;;5114495;28;20419;-70
2023/12/19 03:33:06;;;;;;;2.60;2.50;;;;;;;;;;5114705;28;20422;-70
2023/12/19 03:35:32;;;;;;;3.30;3.00;;;;;;;;;;5114901;28;20428;-70
2023/12/19 03:37:58;;;;;;;2.30;2.20;;;;;;;;;;5114667;28;20929;-70
2023/12/19 03:40:24;;;;;;;2.20;2.20;;;;;;;;;;5114605;28;20515;-70
2023/12/19 03:42:50;;;;;;;2.37;2.27;;;;;;;;;;5114496;28;20411;-70
2023/12/19 03:45:16;;;;;;;2.23;2.10;;;;;;;;;;5113011;28;20423;-70
2023/12/19 03:47:42;;;;;;;2.40;2.20;;;;;;;;;;5114468;28;20419;-70
2023/12/19 03:50:09;;;;;;;1.87;1.87;;;;;;;;;;5114142;28;20507;-70
2023/12/19 03:52:35;;;;;;;2.70;2.60;;;;;;;;;;5114055;28;20900;-70
2023/12/19 03:55:02;;;;;;;2.10;2.00;;;;;;;;;;5114160;28;20415;-70
2023/12/19 03:57:28;;;;;;;1.80;1.70;;;;;;;;;;5114035;28;20408;-70
2023/12/19 03:59:54;;;;;;;1.73;1.73;;;;;;;;;;5113943;28;20913;-69
2023/12/19 04:02:20;;;;;;;1.80;1.70;;;;;;;;;;5113914;28;20420;-70
2023/12/19 04:04:46;;;;;;;3.20;1.90;;;;;;;;;;5113834;28;20467;-70
2023/12/19 04:07:12;;;;;;;1.97;1.93;;;;;;;;;;5112565;28;20456;-70
2023/12/19 04:09:38;;;;;;;2.37;2.17;;;;;;;;;;5113802;28;20526;-70
2023/12/19 04:12:04;;;;;;;2.83;2.20;;;;;;;;;;5113621;28;20422;-70
2023/12/19 04:14:31;;;;;;;2.03;2.00;;;;;;;;;;5114140;28;20419;-70
2023/12/19 04:16:57;;;;;;;1.53;1.53;;;;;;;;;;5114123;28;20422;-70
2023/12/19 04:19:23;;;;;;;1.80;1.80;;;;;;;;;;5114090;28;20431;-70
2023/12/19 04:21:49;;;;;;;1.73;1.70;;;;;;;;;;5112432;28;20459;-70
2023/12/19 04:24:15;;;;;;;1.43;1.40;;;;;;;;;;5113603;28;20825;-70
2023/12/19 04:26:42;;;;;;;1.67;1.57;;;;;;;;;;5113840;28;20545;-70
2023/12/19 04:29:08;;;;;;;1.67;1.57;;;;;;;;;;5113042;28;20475;-70
2023/12/19 04:31:34;;;;;;;2.53;2.43;;;;;;;;;;5113898;28;20415;-70
2023/12/19 04:34:00;;;;;;;1.63;1.63;;;;;;;;;;5113532;28;20415;-70
2023/12/19 04:36:26;;;;;;;1.90;1.90;;;;;;;;;;5113832;28;20410;-70
2023/12/19 04:38:52;;;;;;;2.70;2.70;;;;;;;;;;5113742;28;20507;-70
2023/12/19 04:41:18;;;;;;;2.13;2.03;;;;;;;;;;5113429;28;20408;-69
2023/12/19 04:43:44;;;;;;;2.00;1.90;;;;;;;;;;5113474;28;20479;-69
2023/12/19 04:46:10;;;;;;;2.37;2.37;;;;;;;;;;5113454;28;20415;-70
2023/12/19 04:48:36;;;;;;;2.13;2.13;;;;;;;;;;5113651;28;20507;-70
2023/12/19 04:51:02;;;;;;;2.33;2.03;;;;;;;;;;5113682;28;20458;-70
2023/12/19 04:53:28;;;;;;;2.27;2.17;;;;;;;;;;5113309;28;20407;-69
2023/12/19 04:55:54;;;;;;;1.87;1.77;;;;;;;;;;5113506;28;20894;-70
2023/12/19 04:58:20;;;;;;;1.90;1.90;;;;;;;;;;5113328;28;20450;-70
2023/12/19 05:00:47;;;;;;;2.50;2.40;;;;;;;;;;5113302;28;20855;-70
2023/12/19 05:03:14;;;;;;;2.83;2.73;;;;;;;;;;5113415;28;20751;-70
2023/12/19 05:05:40;;;;;;;1.97;1.77;;;;;;;;;;5113630;28;20439;-70
2023/12/19 05:08:06;;;;;;;2.80;2.70;;;;;;;;;;5111694;28;20435;-70
2023/12/19 05:10:32;;;;;;;2.33;2.23;;;;;;;;;;5113359;28;20560;-70
2023/12/19 05:12:58;;;;;;;2.50;2.40;;;;;;;;;;5111871;28;20443;-72
2023/12/19 05:15:23;;;;;;;2.80;2.70;;;;;;;;;;5113706;28;20423;-70
2023/12/19 05:17:49;;;;;;;2.97;2.77;;;;;;;;;;5113097;28;20412;-70
2023/12/19 05:20:15;;;;;;;2.57;2.37;;;;;;;;;;5113137;28;20496;-70
2023/12/19 05:22:41;;;;;;;3.23;2.23;;;;;;;;;;5111578;28;20454;-70
2023/12/19 05:25:07;;;;;;;2.23;2.13;;;;;;;;;;5113044;28;20456;-70
2023/12/19 05:27:36;;;;;;;2.77;2.57;;;;;;;;;;5113899;28;20891;-70
2023/12/19 05:30:02;;;;;;;2.77;2.67;;;;;;;;;;5113280;28;20475;-70
2023/12/19 05:32:28;;;;;;;8.33;2.40;;;;;;;;;;5113062;28;20465;-70
2023/12/19 05:34:54;;;;;;;2.40;2.30;;;;;;;;;;5112980;28;20489;-70
2023/12/19 05:37:20;;;;;;;2.30;2.20;;;;;;;;;;5112774;28;20483;-70
2023/12/19 05:39:46;;;;;;;2.70;2.70;;;;;;;;;;5112793;28;20427;-70
2023/12/19 05:42:12;;;;;;;2.50;2.30;;;;;;;;;;5116662;28;20427;-70
2023/12/19 05:44:38;;;;;;;2.50;2.47;;;;;;;;;;5116441;28;20942;-70
2023/12/19 05:47:04;;;;;;;2.10;2.10;;;;;;;;;;5116751;28;20408;-70
2023/12/19 05:49:30;;;;;;;1.77;1.77;;;;;;;;;;5116830;28;20564;-70
2023/12/19 05:51:57;;;;;;;1.87;1.87;;;;;;;;;;5116520;28;20876;-70
2023/12/19 05:54:22;;;;;;;1.63;1.63;;;;;;;;;;5116324;28;20777;-70
2023/12/19 05:56:49;;;;;;;1.60;1.60;;;;;;;;;;5116466;28;20486;-70
2023/12/19 05:59:15;;;;;;;2.17;2.07;;;;;;;;;;5116227;28;20423;-70
2023/12/19 06:01:43;;;;;;;1.93;1.83;;;;;;;;;;5116453;28;20400;-70
2023/12/19 06:04:10;;;;;;;1.30;1.30;;;;;;;;;;5115796;28;20567;-70
2023/12/19 06:06:40;;;;;;;1.77;1.67;;;;;;;;;;5116319;28;20418;-70
2023/12/19 06:09:06;;;;;;;1.80;1.70;;;;;;;;;;5115904;28;20899;-70
2023/12/19 06:11:32;;;;;;;2.33;2.13;;;;;;;;;;5116298;28;20408;-70
2023/12/19 06:13:58;;;;;;;1.80;1.70;;;;;;;;;;5115917;28;20922;-70
2023/12/19 06:16:24;;;;;;;2.20;2.10;;;;;;;;;;5116395;28;20880;-70
2023/12/19 06:18:50;;;;;;;2.17;1.97;;;;;;;;;;5115890;28;20865;-70
2023/12/19 06:21:16;;;;;;;2.10;2.00;;;;;;;;;;5115905;28;20420;-70
2023/12/19 06:23:42;;;;;;;1.83;1.73;;;;;;;;;;5115749;28;20420;-70
2023/12/19 06:26:08;;;;;;;1.70;1.70;;;;;;;;;;5116026;28;20419;-70
2023/12/19 06:28:34;;;;;;;1.73;1.73;;;;;;;;;;5115692;28;20451;-70
2023/12/19 06:31:00;;;;;;;2.30;2.20;;;;;;;;;;5115709;28;20420;-70
2023/12/19 06:33:26;;;;;;;1.73;1.63;;;;;;;;;;5115508;28;20416;-70
2023/12/19 06:35:52;;;;;;;2.07;1.97;;;;;;;;;;5115862;28;20424;-71
2023/12/19 06:38:18;;;;;;;1.80;1.80;;;;;;;;;;5115652;28;20426;-70
2023/12/19 06:40:45;;;;;;;2.47;2.37;;;;;;;;;;5115654;28;20420;-70
2023/12/19 06:43:11;;;;;;;3.67;1.87;;;;;;;;;;5115502;28;20416;-70
2023/12/19 06:45:37;;;;;;;2.30;2.10;;;;;;;;;;5115748;28;20415;-71
2023/12/19 06:48:03;;;;;;;2.27;2.17;;;;;;;;;;5115868;28;20408;-71
2023/12/19 06:50:29;;;;;;;2.30;2.20;;;;;;;;;;5115258;28;20898;-71
2023/12/19 06:52:55;;;;;;;2.20;1.83;;;;;;;;;;5114175;28;20503;-70
2023/12/19 06:55:21;;;;;;;1.67;1.57;;;;;;;;;;5114939;28;20420;-70
2023/12/19 06:57:48;;;;;;;3.63;2.20;;;;;;;;;;5115397;28;20411;-70
2023/12/19 07:00:16;;;;;;;1.93;1.93;;;;;;;;;;5114787;28;20919;-70
2023/12/19 07:02:42;;;;;;;13.83;8.20;;;;;;;;;;5115141;28;20830;-70
2023/12/19 07:05:09;;;;;;;6.93;2.67;;;;;;;;;;5114494;28;20525;-70
2023/12/19 07:07:36;;;;;;;1.80;1.70;;;;;;;;;;5115121;28;20503;-70
2023/12/19 07:10:03;;;;;;;2.83;2.63;;;;;;;;;;5115174;28;20502;-65
2023/12/19 07:12:29;;;;;;;6.13;3.03;;;;;;;;;;5114709;28;20911;-70
2023/12/19 07:14:55;;;;;;;2.10;2.00;;;;;;;;;;5115338;28;20488;-70
2023/12/19 07:17:22;;;;;;;2.10;2.00;;;;;;;;;;5113552;28;20416;-70
2023/12/19 07:19:48;;;;;;;2.50;2.40;;;;;;;;;;5114542;28;20511;-70
2023/12/19 07:22:14;;;;;;;2.53;2.43;;;;;;;;;;5114514;28;20961;-70
2023/12/19 07:24:40;;;;;;;3.20;2.90;;;;;;;;;;5114447;28;20403;-70
2023/12/19 07:27:06;;;;;;;2.63;2.57;;;;;;;;;;5114619;28;20454;-70
2023/12/19 07:29:32;;;;;;;1.80;1.80;;;;;;;;;;5114247;28;20475;-70
2023/12/19 07:31:58;;;;;;;2.03;1.93;;;;;;;;;;5114785;28;20568;-70
2023/12/19 07:34:24;;;;;;;3.67;2.77;;;;;;;;;;5114275;28;20423;-70
2023/12/19 07:36:51;;;;;;;2.67;2.47;;;;;;;;;;5114442;28;20463;-71
2023/12/19 07:39:17;;;;;;;3.03;2.83;;;;;;;;;;5114209;28;20416;-70
2023/12/19 07:41:43;;;;;;;4.93;2.10;;;;;;;;;;5114097;28;20788;-68
2023/12/19 07:44:09;;;;;;;2.80;2.70;;;;;;;;;;5114003;28;20419;-68
2023/12/19 07:46:44;;;;;;;2.90;2.80;;;;;;;;;;5114215;28;20762;-68
2023/12/19 07:49:10;;;;;;;2.20;2.13;;;;;;;;;;5114065;28;20454;-70
2023/12/19 07:51:36;;;;;;;2.67;2.67;;;;;;;;;;5113981;28;20937;-70
2023/12/19 07:54:02;;;;;;;15.47;8.70;;;;;;;;;;5114083;28;20413;-70
2023/12/19 07:56:28;;;;;;;3.00;2.80;;;;;;;;;;5114006;28;20827;-70
2023/12/19 07:58:54;;;;;;;3.80;3.50;;;;;;;;;;5114169;28;20507;-71
2023/12/19 08:01:20;;;;;;;37.13;18.30;;;;;;;;;;5114344;28;20939;-70
2023/12/19 08:03:46;;;;;;;9.93;5.30;;;;;;;;;;5113604;28;20888;-71
2023/12/19 08:06:13;;;;;;;3.07;2.93;;;;;;;;;;5113972;28;20863;-71
2023/12/19 08:08:39;;;;;;;2.80;2.70;;;;;;;;;;5113686;28;20966;-71
2023/12/19 08:11:05;;;;;;;5.03;4.67;;;;;;;;;;5113865;28;20419;-70
2023/12/19 08:13:32;;;;;;;5.47;5.10;;;;;;;;;;5112907;28;20843;-71
2023/12/19 08:15:58;;;;;;;2.73;2.63;;;;;;;;;;5113548;28;20887;-71
2023/12/19 08:18:23;;;;;;;3.20;3.00;;;;;;;;;;5113970;28;20465;-71
2023/12/19 08:20:50;;;;;;;3.17;2.93;;;;;;;;;;5114054;28;20768;-71
2023/12/19 08:23:16;;;;;;;4.93;3.20;;;;;;;;;;5113685;28;20994;-70
2023/12/19 08:25:42;;;;;;;5.53;5.13;;;;;;;;;;5113981;28;20435;-71
2023/12/19 08:28:08;;;;;;;5.23;3.50;;;;;;;;;;5114047;28;20880;-70
2023/12/19 08:30:34;;;;;;;5.50;2.40;;;;;;;;;;5113900;28;20427;-71
2023/12/19 08:33:01;;;;;;;2.00;1.90;;;;;;;;;;5113429;28;20408;-71
2023/12/19 08:35:27;;;;;;;2.90;2.70;;;;;;;;;;5113712;28;20772;-71
2023/12/19 08:37:53;;;;;;;3.17;3.07;;;;;;;;;;5113690;28;20408;-70
2023/12/19 08:40:20;;;;;;;6.23;5.73;;;;;;;;;;5113426;28;20415;-71
2023/12/19 08:42:47;;;;;;;5.93;4.77;;;;;;;;;;5113654;28;20477;-71
2023/12/19 08:45:14;;;;;;;4.23;3.50;;;;;;;;;;5113694;28;20548;-71
2023/12/19 08:47:40;;;;;;;3.40;3.10;;;;;;;;;;5113774;28;20729;-71
2023/12/19 08:50:09;;;;;;;4.10;3.80;;;;;;;;;;5113589;28;21114;-71
2023/12/19 08:52:37;;;;;;;81.03;36.87;;;;;;;;;;5113363;28;20415;-71
2023/12/19 08:55:04;;;;;;;3.27;3.17;;;;;;;;;;5112175;28;20431;-71
2023/12/19 08:57:31;;;;;;;8.77;6.60;;;;;;;;;;5113378;28;20451;-70
2023/12/19 08:59:57;;;;;;;6.63;2.47;;;;;;;;;;5113566;28;20468;-71
2023/12/19 09:02:23;;;;;;;2.70;2.60;;;;;;;;;;5113288;28;20415;-71
2023/12/19 09:04:49;;;;;;;3.00;2.90;;;;;;;;;;5113202;28;20467;-71
2023/12/19 09:07:15;;;;;;;4.43;3.07;;;;;;;;;;5113204;28;20519;-71
2023/12/19 09:09:41;;;;;;;3.63;3.43;;;;;;;;;;5114289;28;20557;-70
2023/12/19 09:12:07;;;;;;;4.33;4.13;;;;;;;;;;5113170;28;20408;-70
2023/12/19 09:14:33;;;;;;;3.13;2.97;;;;;;;;;;5113505;28;20514;-70
2023/12/19 09:16:59;;;;;;;2.57;2.47;;;;;;;;;;5116905;28;20415;-71
2023/12/19 09:19:26;;;;;;;3.43;2.80;;;;;;;;;;5117218;28;20498;-71
2023/12/19 09:21:52;;;;;;;3.00;2.90;;;;;;;;;;5117139;28;20453;-71
2023/12/19 09:24:18;;;;;;;6.80;5.00;;;;;;;;;;5117062;28;20419;-71
2023/12/19 09:26:44;;;;;;;4.30;4.00;;;;;;;;;;5117293;28;20419;-70
2023/12/19 09:29:10;;;;;;;3.03;2.90;;;;;;;;;;5117207;28;20471;-71
2023/12/19 09:31:36;;;;;;;2.23;2.20;;;;;;;;;;5117208;28;20408;-71
2023/12/19 09:34:02;;;;;;;2.57;2.43;;;;;;;;;;5117072;28;20435;-71
2023/12/19 09:36:28;;;;;;;3.00;2.80;;;;;;;;;;5116835;28;20896;-71
2023/12/19 09:38:54;;;;;;;4.20;3.90;;;;;;;;;;5117084;28;20480;-71
2023/12/19 09:41:20;;;;;;;4.53;3.37;;;;;;;;;;5116842;27;20416;-71
2023/12/19 09:43:46;;;;;;;2.73;2.63;;;;;;;;;;5116896;28;20503;-71
2023/12/19 09:46:13;;;;;;;2.60;2.50;;;;;;;;;;5117012;28;20419;-71
2023/12/19 09:48:42;;;;;;;2.60;2.50;;;;;;;;;;5116704;28;20958;-71
2023/12/19 09:51:11;;;;;;;2.30;2.30;;;;;;;;;;5116928;28;20476;-71
2023/12/19 09:53:39;;;;;;;2.50;2.40;;;;;;;;;;5116392;28;20781;-71
2023/12/19 09:56:05;;;;;;;2.30;2.10;;;;;;;;;;5116818;28;20423;-71
2023/12/19 09:58:31;;;;;;;2.40;2.30;;;;;;;;;;5116524;28;20420;-71
2023/12/19 10:00:58;;;;;;;4.50;2.40;;;;;;;;;;5116634;28;20412;-71
2023/12/19 10:03:24;;;;;;;2.20;2.10;;;;;;;;;;5116062;28;20989;-71
2023/12/19 10:05:50;;;;;;;3.40;2.30;;;;;;;;;;5116695;28;20409;-71
2023/12/19 10:08:17;;;;;;;2.60;2.10;;;;;;;;;;5116686;28;20561;-71
2023/12/19 10:10:53;;;;;;;1.97;1.97;;;;;;;;;;5116246;28;20420;-70
2023/12/19 10:13:25;;;;;;;1.90;1.90;;;;;;;;;;5116139;28;20407;-70
2023/12/19 10:16:02;;;;;;;1.70;1.70;;;;;;;;;;5116143;28;20455;-71
2023/12/19 10:18:28;;;;;;;1.93;1.80;;;;;;;;;;5116360;28;20416;-71
2023/12/19 10:21:08;;;;;;;1.90;1.90;;;;;;;;;;5115951;28;20412;-70
2023/12/19 10:23:34;;;;;;;1.90;1.90;;;;;;;;;;5114727;28;20507;-70
2023/12/19 10:26:00;;;;;;;1.83;1.83;;;;;;;;;;5115917;28;21020;-71
2023/12/19 10:28:26;;;;;;;1.87;1.87;;;;;;;;;;5114810;28;20474;-71
2023/12/19 10:31:10;;;;;;;3.07;2.87;;;;;;;;;;5116027;28;20420;-71
2023/12/19 10:33:42;;;;;;;3.47;2.80;;;;;;;;;;5115748;28;20769;-71
2023/12/19 10:36:08;;;;;;;2.80;2.70;;;;;;;;;;5115781;28;20452;-71
2023/12/19 10:38:46;;;;;;;2.70;2.53;;;;;;;;;;5114477;28;20424;-71
2023/12/19 10:41:20;;;;;;;3.00;2.80;;;;;;;;;;5115885;28;20427;-71
2023/12/19 10:43:47;;;;;;;2.90;2.70;;;;;;;;;;5115744;28;20407;-71
2023/12/19 10:46:15;;;;;;;3.60;3.47;;;;;;;;;;5115601;28;20481;-71
2023/12/19 10:48:41;;;;;;;2.80;2.70;;;;;;;;;;5115706;28;20455;-71
2023/12/19 10:51:08;;;;;;;6.67;5.93;;;;;;;;;;5115291;28;20431;-71
2023/12/19 10:53:36;;;;;;;7.10;2.70;;;;;;;;;;5115405;28;20511;-71
2023/12/19 10:56:03;;;;;;;2.80;2.70;;;;;;;;;;5115287;28;20435;-71
2023/12/19 10:58:29;;;;;;;3.07;2.87;;;;;;;;;;5115276;28;20439;-71
2023/12/19 11:00:55;;;;;;;2.43;2.33;;;;;;;;;;5115770;28;20772;-71
2023/12/19 11:03:34;;;;;;;4.90;4.50;;;;;;;;;;5115456;28;20416;-71
2023/12/19 11:06:05;;;;;;;3.17;3.07;;;;;;;;;;5115714;28;20436;-71
2023/12/19 11:08:32;;;;;;;5.10;4.80;;;;;;;;;;5115330;28;20475;-71
2023/12/19 11:11:02;;;;;;;29.37;15.83;;;;;;;;;;5115025;28;20416;-71
2023/12/19 11:13:29;;;;;;;6.90;3.60;;;;;;;;;;5113604;28;20599;-71
2023/12/19 11:15:58;;;;;;;111.23;48.97;;;;;;;;;;5114961;28;20423;-71
2023/12/19 11:18:34;;;;;;;60.27;32.20;;;;;;;;;;5114843;28;20420;-71
2023/12/19 11:21:06;;;;;;;3.77;3.57;;;;;;;;;;5114687;28;20400;-71
2023/12/19 11:23:43;;;;;;;7.40;6.70;;;;;;;;;;5114687;28;20400;-71
2023/12/19 11:26:16;;;;;;;3.53;3.40;;;;;;;;;;5114790;28;20438;-71
2023/12/19 11:28:42;;;;;;;7.07;6.47;;;;;;;;;;5114592;28;20875;-71
2023/12/19 11:31:38;;;;;;;13.50;9.67;;;;;;;;;;5114897;28;20511;-71
2023/12/19 11:34:23;;;;;;;7.63;6.30;;;;;;;;;;5100600;28;20408;-71
2023/12/19 11:37:02;;;;;;;23.30;13.77;;;;;;;;;;5114525;28;20411;-71
2023/12/19 11:39:30;;;;;;;5.90;5.40;;;;;;;;;;5114109;28;20400;-71
2023/12/19 11:41:57;;;;;;;12.00;3.80;;;;;;;;;;5114306;28;20430;-71
2023/12/19 11:44:33;;;;;;;3.27;3.00;;;;;;;;;;5114697;28;20426;-71
2023/12/19 11:47:18;;;;;;;3.00;2.90;;;;;;;;;;5114600;28;20419;-71
2023/12/19 11:49:45;;;;;;;4.50;4.30;;;;;;;;;;5114510;28;20580;-71
2023/12/19 11:52:31;;;;;;;3.17;3.00;;;;;;;;;;5114179;28;20440;-71
2023/12/19 11:54:57;;;;;;;3.27;3.10;;;;;;;;;;5113899;28;20411;-71
2023/12/19 11:57:23;;;;;;;7.93;7.20;;;;;;;;;;5114398;28;20415;-71
2023/12/19 12:02:52;;;;;;;3.33;3.10;;;;;;;;;;5114242;28;20395;-71
2023/12/19 12:05:21;;;;;;;8.60;7.70;;;;;;;;;;5113725;28;20456;-71
2023/12/19 12:07:51;;;;;;;16.37;11.57;;;;;;;;;;5114193;28;20416;-71
2023/12/19 12:10:20;;;;;;;7.53;6.80;;;;;;;;;;5114043;28;20460;-71
2023/12/19 12:12:46;;;;;;;6.57;4.83;;;;;;;;;;5114063;28;20812;-71
2023/12/19 12:15:21;;;;;;;6.77;6.10;;;;;;;;;;5113901;28;20895;-71
2023/12/19 12:17:47;;;;;;;5.37;5.07;;;;;;;;;;5113679;28;20765;-71
2023/12/19 12:20:14;;;;;;;12.67;10.20;;;;;;;;;;5114079;28;20412;-71
2023/12/19 12:22:40;;;;;;;6.03;5.37;;;;;;;;;;5113355;28;20504;-72
2023/12/19 12:25:09;;;;;;;5.00;4.70;;;;;;;;;;5113685;28;20408;-70
2023/12/19 12:27:35;;;;;;;3.63;3.43;;;;;;;;;;5113981;28;20546;-71
2023/12/19 12:30:01;;;;;;;3.93;3.73;;;;;;;;;;5113298;28;20550;-73
2023/12/19 12:32:27;;;;;;;4.77;4.37;;;;;;;;;;5114119;28;20414;-72
2023/12/19 12:34:56;;;;;;;3.67;3.43;;;;;;;;;;5113418;28;20896;-71
2023/12/19 12:37:22;;;;;;;6.50;6.00;;;;;;;;;;5113651;28;20420;-71
2023/12/19 12:39:48;;;;;;;36.37;21.17;;;;;;;;;;5114489;28;20430;-71
2023/12/19 12:42:20;;;;;;;6.90;6.30;;;;;;;;;;5113555;28;20404;-72
2023/12/19 12:44:46;;;;;;;23.77;12.20;;;;;;;;;;5113595;28;20403;-71
2023/12/19 12:47:23;;;;;;;12.67;8.87;;;;;;;;;;5113717;28;20403;-71
2023/12/19 12:50:00;;;;;;;19.03;11.67;;;;;;;;;;5113336;28;20549;-71
2023/12/19 12:52:26;;;;;;;15.30;7.50;;;;;;;;;;5117965;28;20450;-71
2023/12/19 12:54:59;;;;;;;8.63;4.43;;;;;;;;;;5117546;28;20491;-72
2023/12/19 12:57:25;;;;;;;11.20;6.97;;;;;;;;;;5117953;28;20419;-71
2023/12/19 12:59:51;;;;;;;6.73;6.33;;;;;;;;;;5117593;28;20418;-71
2023/12/19 13:02:17;;;;;;;7.30;6.70;;;;;;;;;;5118164;28;20416;-71
2023/12/19 13:04:43;;;;;;;5.20;4.80;;;;;;;;;;5117206;28;20566;-71
2023/12/19 13:07:09;;;;;;;6.23;5.67;;;;;;;;;;5117380;28;20415;-71
2023/12/19 13:09:35;;;;;;;8.67;4.60;;;;;;;;;;5117650;28;20467;-71
2023/12/19 13:12:02;;;;;;;5.67;5.20;;;;;;;;;;5117455;28;20880;-71
2023/12/19 13:14:28;;;;;;;6.03;5.50;;;;;;;;;;5117562;28;20506;-71
2023/12/19 13:16:54;;;;;;;5.13;4.83;;;;;;;;;;5117582;28;20439;-71
2023/12/19 13:19:21;;;;;;;5.43;5.13;;;;;;;;;;5117250;28;20419;-71
2023/12/19 13:21:46;;;;;;;7.43;4.40;;;;;;;;;;5117388;28;20426;-71
2023/12/19 13:24:12;;;;;;;4.90;4.57;;;;;;;;;;5117103;28;20495;-72
2023/12/19 13:26:39;;;;;;;6.43;5.83;;;;;;;;;;5117328;28;20426;-71
2023/12/19 13:29:06;;;;;;;5.10;4.60;;;;;;;;;;5116951;28;20986;-70
2023/12/19 13:31:32;;;;;;;5.13;4.83;;;;;;;;;;5117022;28;20412;-70
2023/12/19 13:33:59;;;;;;;5.10;4.70;;;;;;;;;;5116667;28;20408;-71
2023/12/19 13:36:25;;;;;;;6.90;6.23;;;;;;;;;;5116837;28;20435;-72
2023/12/19 13:38:51;;;;;;;5.57;5.17;;;;;;;;;;5117394;28;20576;-72
2023/12/19 13:41:17;;;;;;;5.83;5.40;;;;;;;;;;5116956;28;20430;-71
2023/12/19 13:43:43;;;;;;;5.97;5.30;;;;;;;;;;5116795;28;20930;-71
2023/12/19 13:46:09;;;;;;;8.17;6.00;;;;;;;;;;5116955;28;20412;-71
2023/12/19 13:48:35;;;;;;;10.60;5.80;;;;;;;;;;5116421;28;20452;-71
2023/12/19 13:51:02;;;;;;;7.17;6.27;;;;;;;;;;5114914;28;20512;-71
2023/12/19 13:53:28;;;;;;;6.23;5.83;;;;;;;;;;5116574;28;20418;-71
2023/12/19 13:55:54;;;;;;;7.40;6.70;;;;;;;;;;5116627;28;20907;-71
2023/12/19 13:58:21;;;;;;;6.90;6.23;;;;;;;;;;5116789;28;20415;-72
2023/12/19 14:00:47;;;;;;;6.83;6.23;;;;;;;;;;5116685;28;20518;-71
2023/12/19 14:03:14;;;;;;;11.70;8.47;;;;;;;;;;5116173;28;20423;-71
2023/12/19 14:05:42;;;;;;;13.37;10.03;;;;;;;;;;5116585;28;20427;-71
2023/12/19 14:08:09;;;;;;;10.57;7.43;;;;;;;;;;5116317;28;20454;-71
2023/12/19 14:10:35;;;;;;;18.20;10.20;;;;;;;;;;5116229;28;20935;-71
2023/12/19 14:13:03;;;;;;;8.80;7.23;;;;;;;;;;5114885;28;20872;-72
2023/12/19 14:15:29;;;;;;;8.30;6.73;;;;;;;;;;5116192;28;20442;-72
2023/12/19 14:17:55;;;;;;;14.20;9.67;;;;;;;;;;5116413;28;20404;-71
2023/12/19 14:20:21;;;;;;;8.37;7.47;;;;;;;;;;5116381;28;20420;-71
2023/12/19 14:22:47;;;;;;;6.07;5.57;;;;;;;;;;5116115;28;20476;-72
2023/12/19 14:25:13;;;;;;;7.40;5.30;;;;;;;;;;5115722;28;20419;-71
2023/12/19 14:27:39;;;;;;;6.13;5.53;;;;;;;;;;5115862;28;20419;-71
2023/12/19 14:30:09;;;;;;;6.30;5.90;;;;;;;;;;5115815;28;20482;-71
2023/12/19 14:32:35;;;;;;;6.27;5.87;;;;;;;;;;5115727;28;20885;-71
2023/12/19 14:35:02;;;;;;;5.63;5.00;;;;;;;;;;5115814;28;20423;-71
2023/12/19 14:37:28;;;;;;;5.77;5.37;;;;;;;;;;5115749;28;20415;-72
2023/12/19 14:39:54;;;;;;;6.03;5.53;;;;;;;;;;5115952;28;20416;-71
2023/12/19 14:42:20;;;;;;;6.80;6.27;;;;;;;;;;5115849;28;20514;-71